EGHI/SOU METAR and TAF weather

Enter ICAO airport designator
Station Type Date Time Source
EGHI METAR 2022/01/29 13:50 UTC NOAA

EGHI 291350Z 26013G24KT 230V290 9999 BKN021 13/09 Q1028


Station Type Date Time Source
EGHI Decoded METAR 2022/01/29 13:50 UTC NOAA

Southampton / Weather Centre, United Kingdom (EGHI) 50-54N 001-24W 0M
Jan 29, 2022 - 08:50 AM EST / 2022.01.29 1350 UTC
Wind: from the W (260 degrees) at 15 MPH (13 KT) gusting to 28 MPH (24 KT) (direction variable):0
Visibility: greater than 7 mile(s):0
Sky conditions: mostly cloudy
Temperature: 55 F (13 C)
Dew Point: 48 F (9 C)
Relative Humidity: 76%
Pressure (altimeter): 30.36 in. Hg (1028 hPa)
ob: EGHI 291350Z 26013G24KT 230V290 9999 BKN021 13/09 Q1028
cycle: 14

Station Type Date Time Source
EGHI TAF 2022/01/20 18:37 UTC NOAA

TAF EGHI 201729Z 2018/2123 CNL

Example: see airport list